sensor_id;sensor_type;location;lat;lon;timestamp;temperature;humidity
23395;DHT22;11870;53.084;18.206;2023-02-16T00:01:52;-2.00;99.90
23395;DHT22;11870;53.084;18.206;2023-02-16T00:04:24;-2.10;99.90
23395;DHT22;11870;53.084;18.206;2023-02-16T00:06:51;-2.20;99.90
23395;DHT22;11870;53.084;18.206;2023-02-16T00:09:18;-2.20;99.90
23395;DHT22;11870;53.084;18.206;2023-02-16T00:11:45;-2.30;99.90
23395;DHT22;11870;53.084;18.206;2023-02-16T00:14:32;-2.30;99.90
23395;DHT22;11870;53.084;18.206;2023-02-16T00:16:58;-2.40;99.90
23395;DHT22;11870;53.084;18.206;2023-02-16T00:19:27;-2.40;99.90
23395;DHT22;11870;53.084;18.206;2023-02-16T00:21:55;-2.50;99.90
23395;DHT22;11870;53.084;18.206;2023-02-16T00:24:22;-2.50;99.90
23395;DHT22;11870;53.084;18.206;2023-02-16T00:26:49;-2.40;99.90
23395;DHT22;11870;53.084;18.206;2023-02-16T00:29:24;-2.40;99.90
23395;DHT22;11870;53.084;18.206;2023-02-16T00:31:51;-2.20;99.90
23395;DHT22;11870;53.084;18.206;2023-02-16T00:36:55;-2.00;99.90
23395;DHT22;11870;53.084;18.206;2023-02-16T00:39:21;-1.90;99.90
23395;DHT22;11870;53.084;18.206;2023-02-16T00:41:51;-1.90;99.90
23395;DHT22;11870;53.084;18.206;2023-02-16T00:46:52;-2.00;99.90
23395;DHT22;11870;53.084;18.206;2023-02-16T00:49:19;-2.00;99.90
23395;DHT22;11870;53.084;18.206;2023-02-16T00:51:47;-2.20;99.90
23395;DHT22;11870;53.084;18.206;2023-02-16T00:54:13;-2.30;99.90
23395;DHT22;11870;53.084;18.206;2023-02-16T00:56:40;-2.40;99.90
23395;DHT22;11870;53.084;18.206;2023-02-16T00:59:08;-2.40;99.90
23395;DHT22;11870;53.084;18.206;2023-02-16T01:01:37;-2.50;99.90
23395;DHT22;11870;53.084;18.206;2023-02-16T01:04:06;-2.60;99.90
23395;DHT22;11870;53.084;18.206;2023-02-16T01:06:32;-2.60;99.90
23395;DHT22;11870;53.084;18.206;2023-02-16T01:09:19;-2.60;99.90
23395;DHT22;11870;53.084;18.206;2023-02-16T01:12:09;-2.70;99.90
23395;DHT22;11870;53.084;18.206;2023-02-16T01:14:38;-2.60;99.90
23395;DHT22;11870;53.084;18.206;2023-02-16T01:17:04;-2.60;99.90
23395;DHT22;11870;53.084;18.206;2023-02-16T01:19:29;-2.30;99.90
23395;DHT22;11870;53.084;18.206;2023-02-16T01:21:55;-2.30;99.90
23395;DHT22;11870;53.084;18.206;2023-02-16T01:24:21;-2.20;99.90
23395;DHT22;11870;53.084;18.206;2023-02-16T01:26:49;-2.10;99.90
23395;DHT22;11870;53.084;18.206;2023-02-16T01:29:19;-2.10;99.90
23395;DHT22;11870;53.084;18.206;2023-02-16T01:31:45;-2.30;99.90
23395;DHT22;11870;53.084;18.206;2023-02-16T01:34:12;-2.30;99.90
23395;DHT22;11870;53.084;18.206;2023-02-16T01:36:46;-2.40;99.90
23395;DHT22;11870;53.084;18.206;2023-02-16T01:39:14;-2.50;99.90
23395;DHT22;11870;53.084;18.206;2023-02-16T01:43:00;-2.50;99.90
23395;DHT22;11870;53.084;18.206;2023-02-16T01:45:00;-2.60;99.90
23395;DHT22;11870;53.084;18.206;2023-02-16T01:52:47;-2.50;99.90
23395;DHT22;11870;53.084;18.206;2023-02-16T01:55:29;-2.50;99.90
23395;DHT22;11870;53.084;18.206;2023-02-16T01:58:05;-2.60;99.90
23395;DHT22;11870;53.084;18.206;2023-02-16T02:03:28;-2.60;99.90
23395;DHT22;11870;53.084;18.206;2023-02-16T02:06:32;-2.60;99.90
23395;DHT22;11870;53.084;18.206;2023-02-16T02:09:10;-2.70;99.90
23395;DHT22;11870;53.084;18.206;2023-02-16T02:11:44;-2.70;99.90
23395;DHT22;11870;53.084;18.206;2023-02-16T02:14:27;-2.70;99.90
23395;DHT22;11870;53.084;18.206;2023-02-16T02:16:59;-2.70;99.90
23395;DHT22;11870;53.084;18.206;2023-02-16T02:19:27;-2.70;99.90
23395;DHT22;11870;53.084;18.206;2023-02-16T02:28:24;-2.40;99.90
23395;DHT22;11870;53.084;18.206;2023-02-16T02:31:22;-2.30;99.90
23395;DHT22;11870;53.084;18.206;2023-02-16T02:36:50;-2.20;99.90
23395;DHT22;11870;53.084;18.206;2023-02-16T02:42:23;-2.00;99.90
23395;DHT22;11870;53.084;18.206;2023-02-16T02:45:08;-2.00;99.90
23395;DHT22;11870;53.084;18.206;2023-02-16T02:47:40;-1.90;99.90
23395;DHT22;11870;53.084;18.206;2023-02-16T02:50:39;-1.80;99.90
23395;DHT22;11870;53.084;18.206;2023-02-16T02:53:12;-1.70;99.90
23395;DHT22;11870;53.084;18.206;2023-02-16T02:55:42;-1.70;99.90
23395;DHT22;11870;53.084;18.206;2023-02-16T02:58:31;-1.70;99.90
23395;DHT22;11870;53.084;18.206;2023-02-16T03:01:18;-1.70;99.90
23395;DHT22;11870;53.084;18.206;2023-02-16T03:03:48;-1.80;99.90
23395;DHT22;11870;53.084;18.206;2023-02-16T03:06:26;-1.80;99.90
23395;DHT22;11870;53.084;18.206;2023-02-16T03:09:03;-1.80;99.90
23395;DHT22;11870;53.084;18.206;2023-02-16T03:11:29;-1.70;99.90
23395;DHT22;11870;53.084;18.206;2023-02-16T03:14:24;-1.80;99.90
23395;DHT22;11870;53.084;18.206;2023-02-16T03:16:55;-1.70;99.90
23395;DHT22;11870;53.084;18.206;2023-02-16T03:19:42;-1.60;99.90
23395;DHT22;11870;53.084;18.206;2023-02-16T03:22:28;-1.50;99.90
23395;DHT22;11870;53.084;18.206;2023-02-16T03:25:13;-1.50;99.90
23395;DHT22;11870;53.084;18.206;2023-02-16T03:27:59;-1.50;99.90
23395;DHT22;11870;53.084;18.206;2023-02-16T03:30:45;-1.50;99.90
23395;DHT22;11870;53.084;18.206;2023-02-16T03:33:12;-1.60;99.90
23395;DHT22;11870;53.084;18.206;2023-02-16T03:35:38;-1.60;99.90
23395;DHT22;11870;53.084;18.206;2023-02-16T03:38:05;-1.60;99.90
23395;DHT22;11870;53.084;18.206;2023-02-16T03:40:32;-1.40;99.90
23395;DHT22;11870;53.084;18.206;2023-02-16T03:43:02;-1.30;99.90
23395;DHT22;11870;53.084;18.206;2023-02-16T03:45:30;-1.30;99.90
23395;DHT22;11870;53.084;18.206;2023-02-16T03:47:56;-1.20;99.90
23395;DHT22;11870;53.084;18.206;2023-02-16T03:50:22;-1.20;99.90
23395;DHT22;11870;53.084;18.206;2023-02-16T03:52:51;-1.20;99.90
23395;DHT22;11870;53.084;18.206;2023-02-16T03:55:17;-1.20;99.90
23395;DHT22;11870;53.084;18.206;2023-02-16T03:57:43;-1.20;99.90
23395;DHT22;11870;53.084;18.206;2023-02-16T04:00:10;-1.20;99.90
23395;DHT22;11870;53.084;18.206;2023-02-16T04:02:36;-1.10;99.90
23395;DHT22;11870;53.084;18.206;2023-02-16T04:05:02;-1.10;99.90
23395;DHT22;11870;53.084;18.206;2023-02-16T04:07:28;-1.10;99.90
23395;DHT22;11870;53.084;18.206;2023-02-16T04:09:54;-1.00;99.90
23395;DHT22;11870;53.084;18.206;2023-02-16T04:12:20;-1.10;99.90
23395;DHT22;11870;53.084;18.206;2023-02-16T04:15:09;-1.10;99.90
23395;DHT22;11870;53.084;18.206;2023-02-16T04:17:35;-1.00;99.90
23395;DHT22;11870;53.084;18.206;2023-02-16T04:20:02;-1.00;99.90
23395;DHT22;11870;53.084;18.206;2023-02-16T04:22:28;-1.00;99.90
23395;DHT22;11870;53.084;18.206;2023-02-16T04:24:54;-1.00;99.90
23395;DHT22;11870;53.084;18.206;2023-02-16T04:27:19;-0.90;99.90
23395;DHT22;11870;53.084;18.206;2023-02-16T04:29:45;-0.80;99.90
23395;DHT22;11870;53.084;18.206;2023-02-16T04:32:11;-0.80;99.90
23395;DHT22;11870;53.084;18.206;2023-02-16T04:34:37;-0.80;99.90
23395;DHT22;11870;53.084;18.206;2023-02-16T04:37:03;-0.90;99.90
23395;DHT22;11870;53.084;18.206;2023-02-16T04:39:31;-1.00;99.90
23395;DHT22;11870;53.084;18.206;2023-02-16T04:41:56;-1.10;99.90
23395;DHT22;11870;53.084;18.206;2023-02-16T04:44:22;-1.20;99.90
23395;DHT22;11870;53.084;18.206;2023-02-16T04:46:48;-1.20;99.90
23395;DHT22;11870;53.084;18.206;2023-02-16T04:49:14;-1.10;99.90
23395;DHT22;11870;53.084;18.206;2023-02-16T04:51:40;-1.10;99.90
23395;DHT22;11870;53.084;18.206;2023-02-16T04:54:06;-1.10;99.90
23395;DHT22;11870;53.084;18.206;2023-02-16T04:56:32;-1.10;99.90
23395;DHT22;11870;53.084;18.206;2023-02-16T04:58:58;-1.30;99.90
23395;DHT22;11870;53.084;18.206;2023-02-16T05:01:27;-1.30;99.90
23395;DHT22;11870;53.084;18.206;2023-02-16T05:03:53;-1.30;99.90
23395;DHT22;11870;53.084;18.206;2023-02-16T05:06:19;-1.40;99.90
23395;DHT22;11870;53.084;18.206;2023-02-16T05:08:46;-1.40;99.90
23395;DHT22;11870;53.084;18.206;2023-02-16T05:11:12;-1.40;99.90
23395;DHT22;11870;53.084;18.206;2023-02-16T05:13:58;-1.50;99.90
23395;DHT22;11870;53.084;18.206;2023-02-16T05:16:42;-1.60;99.90
23395;DHT22;11870;53.084;18.206;2023-02-16T05:19:08;-1.80;99.90
23395;DHT22;11870;53.084;18.206;2023-02-16T05:21:34;-1.90;99.90
23395;DHT22;11870;53.084;18.206;2023-02-16T05:24:03;-2.00;99.90
23395;DHT22;11870;53.084;18.206;2023-02-16T05:26:29;-2.10;99.90
23395;DHT22;11870;53.084;18.206;2023-02-16T05:28:56;-2.10;99.90
23395;DHT22;11870;53.084;18.206;2023-02-16T05:31:23;-2.20;99.90
23395;DHT22;11870;53.084;18.206;2023-02-16T05:33:50;-2.20;99.90
23395;DHT22;11870;53.084;18.206;2023-02-16T05:36:16;-2.30;99.90
23395;DHT22;11870;53.084;18.206;2023-02-16T05:38:42;-2.40;99.90
23395;DHT22;11870;53.084;18.206;2023-02-16T05:41:08;-2.50;99.90
23395;DHT22;11870;53.084;18.206;2023-02-16T05:43:34;-2.60;99.90
23395;DHT22;11870;53.084;18.206;2023-02-16T05:46:08;-2.60;99.90
23395;DHT22;11870;53.084;18.206;2023-02-16T05:48:35;-2.60;99.90
23395;DHT22;11870;53.084;18.206;2023-02-16T05:51:00;-2.60;99.90
23395;DHT22;11870;53.084;18.206;2023-02-16T05:53:26;-2.70;99.90
23395;DHT22;11870;53.084;18.206;2023-02-16T05:55:52;-2.70;99.90
23395;DHT22;11870;53.084;18.206;2023-02-16T05:58:18;-2.80;99.90
23395;DHT22;11870;53.084;18.206;2023-02-16T06:00:44;-2.90;99.90
23395;DHT22;11870;53.084;18.206;2023-02-16T06:03:10;-2.80;99.90
23395;DHT22;11870;53.084;18.206;2023-02-16T06:05:36;-2.90;99.90
23395;DHT22;11870;53.084;18.206;2023-02-16T06:08:02;-3.00;99.90
23395;DHT22;11870;53.084;18.206;2023-02-16T06:10:28;-2.90;99.90
23395;DHT22;11870;53.084;18.206;2023-02-16T06:12:54;-3.00;99.90
23395;DHT22;11870;53.084;18.206;2023-02-16T06:15:20;-3.10;99.90
23395;DHT22;11870;53.084;18.206;2023-02-16T06:17:46;-3.00;99.90
23395;DHT22;11870;53.084;18.206;2023-02-16T06:20:12;-3.00;99.90
23395;DHT22;11870;53.084;18.206;2023-02-16T06:22:38;-3.00;99.90
23395;DHT22;11870;53.084;18.206;2023-02-16T06:25:04;-2.90;99.90
23395;DHT22;11870;53.084;18.206;2023-02-16T06:27:30;-2.80;99.90
23395;DHT22;11870;53.084;18.206;2023-02-16T06:29:56;-2.80;99.90
23395;DHT22;11870;53.084;18.206;2023-02-16T06:32:21;-2.80;99.90
23395;DHT22;11870;53.084;18.206;2023-02-16T06:34:47;-2.80;99.90
23395;DHT22;11870;53.084;18.206;2023-02-16T06:37:14;-2.70;99.90
23395;DHT22;11870;53.084;18.206;2023-02-16T06:39:39;-2.70;99.90
23395;DHT22;11870;53.084;18.206;2023-02-16T06:42:05;-2.60;99.90
23395;DHT22;11870;53.084;18.206;2023-02-16T06:44:31;-2.60;99.90
23395;DHT22;11870;53.084;18.206;2023-02-16T06:46:57;-2.50;99.90
23395;DHT22;11870;53.084;18.206;2023-02-16T06:49:23;-2.40;99.90
23395;DHT22;11870;53.084;18.206;2023-02-16T06:51:50;-2.30;99.90
23395;DHT22;11870;53.084;18.206;2023-02-16T06:54:16;-2.20;99.90
23395;DHT22;11870;53.084;18.206;2023-02-16T06:56:43;-2.00;99.90
23395;DHT22;11870;53.084;18.206;2023-02-16T06:59:10;-1.80;99.90
23395;DHT22;11870;53.084;18.206;2023-02-16T07:01:37;-1.60;99.90
23395;DHT22;11870;53.084;18.206;2023-02-16T07:04:03;-1.40;99.90
23395;DHT22;11870;53.084;18.206;2023-02-16T07:06:29;-1.20;99.90
23395;DHT22;11870;53.084;18.206;2023-02-16T07:08:55;-1.00;99.90
23395;DHT22;11870;53.084;18.206;2023-02-16T07:11:22;-0.90;99.90
23395;DHT22;11870;53.084;18.206;2023-02-16T07:13:48;-0.80;99.90
23395;DHT22;11870;53.084;18.206;2023-02-16T07:16:14;-0.60;99.90
23395;DHT22;11870;53.084;18.206;2023-02-16T07:18:40;-0.30;99.90
23395;DHT22;11870;53.084;18.206;2023-02-16T07:21:06;-0.30;99.90
23395;DHT22;11870;53.084;18.206;2023-02-16T07:23:32;0.00;99.90
23395;DHT22;11870;53.084;18.206;2023-02-16T07:25:59;0.30;99.90
23395;DHT22;11870;53.084;18.206;2023-02-16T07:28:25;0.50;99.90
23395;DHT22;11870;53.084;18.206;2023-02-16T07:30:51;1.50;99.90
23395;DHT22;11870;53.084;18.206;2023-02-16T07:33:17;0.90;99.90
23395;DHT22;11870;53.084;18.206;2023-02-16T07:35:43;1.30;99.90
23395;DHT22;11870;53.084;18.206;2023-02-16T07:38:09;1.70;99.90
23395;DHT22;11870;53.084;18.206;2023-02-16T07:40:36;2.00;99.90
23395;DHT22;11870;53.084;18.206;2023-02-16T07:43:03;2.20;99.90
23395;DHT22;11870;53.084;18.206;2023-02-16T07:45:30;2.40;99.90
23395;DHT22;11870;53.084;18.206;2023-02-16T07:48:00;2.60;99.90
23395;DHT22;11870;53.084;18.206;2023-02-16T07:50:26;3.40;99.90
23395;DHT22;11870;53.084;18.206;2023-02-16T07:52:52;4.10;99.90
23395;DHT22;11870;53.084;18.206;2023-02-16T07:55:18;4.60;99.90
23395;DHT22;11870;53.084;18.206;2023-02-16T07:57:44;5.20;99.90
23395;DHT22;11870;53.084;18.206;2023-02-16T08:00:10;5.70;99.90
23395;DHT22;11870;53.084;18.206;2023-02-16T08:02:36;6.30;99.90
23395;DHT22;11870;53.084;18.206;2023-02-16T08:05:03;6.90;99.90
23395;DHT22;11870;53.084;18.206;2023-02-16T08:07:29;7.40;99.90
23395;DHT22;11870;53.084;18.206;2023-02-16T08:09:55;7.70;99.90
23395;DHT22;11870;53.084;18.206;2023-02-16T08:12:21;8.10;99.90
23395;DHT22;11870;53.084;18.206;2023-02-16T08:14:49;8.70;99.90
23395;DHT22;11870;53.084;18.206;2023-02-16T08:17:15;9.10;99.90
23395;DHT22;11870;53.084;18.206;2023-02-16T08:19:41;9.50;99.90
23395;DHT22;11870;53.084;18.206;2023-02-16T08:22:07;9.80;99.90
23395;DHT22;11870;53.084;18.206;2023-02-16T08:24:34;10.50;99.90
23395;DHT22;11870;53.084;18.206;2023-02-16T08:27:02;10.00;99.90
23395;DHT22;11870;53.084;18.206;2023-02-16T08:29:30;10.10;99.90
23395;DHT22;11870;53.084;18.206;2023-02-16T08:31:56;11.10;99.90
23395;DHT22;11870;53.084;18.206;2023-02-16T08:34:23;11.30;99.90
23395;DHT22;11870;53.084;18.206;2023-02-16T08:36:56;10.80;99.90
23395;DHT22;11870;53.084;18.206;2023-02-16T08:39:27;11.20;99.90
23395;DHT22;11870;53.084;18.206;2023-02-16T08:41:54;11.70;97.90
23395;DHT22;11870;53.084;18.206;2023-02-16T08:44:22;12.50;94.80
23395;DHT22;11870;53.084;18.206;2023-02-16T08:46:49;12.70;92.80
23395;DHT22;11870;53.084;18.206;2023-02-16T08:49:17;13.20;85.00
23395;DHT22;11870;53.084;18.206;2023-02-16T08:51:46;13.10;75.80
23395;DHT22;11870;53.084;18.206;2023-02-16T08:54:20;13.30;78.40
23395;DHT22;11870;53.084;18.206;2023-02-16T08:56:46;13.00;75.00
23395;DHT22;11870;53.084;18.206;2023-02-16T08:59:16;12.90;74.30
23395;DHT22;11870;53.084;18.206;2023-02-16T09:01:42;13.00;76.20
23395;DHT22;11870;53.084;18.206;2023-02-16T09:04:08;13.00;78.30
23395;DHT22;11870;53.084;18.206;2023-02-16T09:06:38;13.10;77.50
23395;DHT22;11870;53.084;18.206;2023-02-16T09:09:05;13.00;73.90
23395;DHT22;11870;53.084;18.206;2023-02-16T09:11:31;13.00;75.00
23395;DHT22;11870;53.084;18.206;2023-02-16T09:13:58;13.20;73.60
23395;DHT22;11870;53.084;18.206;2023-02-16T09:16:24;13.40;72.40
23395;DHT22;11870;53.084;18.206;2023-02-16T09:18:54;13.60;71.10
23395;DHT22;11870;53.084;18.206;2023-02-16T09:21:24;13.70;68.90
23395;DHT22;11870;53.084;18.206;2023-02-16T09:23:52;14.00;69.40
23395;DHT22;11870;53.084;18.206;2023-02-16T09:26:21;14.00;65.30
23395;DHT22;11870;53.084;18.206;2023-02-16T09:28:48;14.30;66.70
23395;DHT22;11870;53.084;18.206;2023-02-16T09:31:27;14.20;65.20
23395;DHT22;11870;53.084;18.206;2023-02-16T09:33:56;14.20;66.80
23395;DHT22;11870;53.084;18.206;2023-02-16T09:36:22;14.40;64.50
23395;DHT22;11870;53.084;18.206;2023-02-16T09:38:49;14.30;63.40
23395;DHT22;11870;53.084;18.206;2023-02-16T09:47:00;15.00;61.60
23395;DHT22;11870;53.084;18.206;2023-02-16T09:49:32;14.80;61.10
23395;DHT22;11870;53.084;18.206;2023-02-16T09:52:38;14.90;61.40
23395;DHT22;11870;53.084;18.206;2023-02-16T09:55:17;14.80;60.40
23395;DHT22;11870;53.084;18.206;2023-02-16T09:57:48;14.70;60.90
23395;DHT22;11870;53.084;18.206;2023-02-16T10:00:34;14.70;61.90
23395;DHT22;11870;53.084;18.206;2023-02-16T10:03:09;14.80;60.90
23395;DHT22;11870;53.084;18.206;2023-02-16T10:06:02;15.10;60.50
23395;DHT22;11870;53.084;18.206;2023-02-16T10:08:40;15.60;59.40
23395;DHT22;11870;53.084;18.206;2023-02-16T10:14:28;16.60;56.90
23395;DHT22;11870;53.084;18.206;2023-02-16T10:17:05;17.50;55.60
23395;DHT22;11870;53.084;18.206;2023-02-16T10:19:49;18.50;51.80
23395;DHT22;11870;53.084;18.206;2023-02-16T10:22:36;18.90;50.80
23395;DHT22;11870;53.084;18.206;2023-02-16T10:28:36;18.10;50.80
23395;DHT22;11870;53.084;18.206;2023-02-16T10:31:38;18.00;50.10
23395;DHT22;11870;53.084;18.206;2023-02-16T10:42:49;17.00;51.30
23395;DHT22;11870;53.084;18.206;2023-02-16T10:45:23;16.50;52.80
23395;DHT22;11870;53.084;18.206;2023-02-16T10:47:50;15.90;54.10
23395;DHT22;11870;53.084;18.206;2023-02-16T10:51:26;15.60;55.10
23395;DHT22;11870;53.084;18.206;2023-02-16T10:53:38;15.10;56.00
23395;DHT22;11870;53.084;18.206;2023-02-16T10:56:31;14.70;57.80
23395;DHT22;11870;53.084;18.206;2023-02-16T10:59:11;14.30;58.80
23395;DHT22;11870;53.084;18.206;2023-02-16T11:01:42;14.00;59.30
23395;DHT22;11870;53.084;18.206;2023-02-16T11:07:15;13.20;62.20
23395;DHT22;11870;53.084;18.206;2023-02-16T11:09:43;13.00;64.30
23395;DHT22;11870;53.084;18.206;2023-02-16T11:12:26;13.30;66.50
23395;DHT22;11870;53.084;18.206;2023-02-16T11:14:56;12.50;67.70
23395;DHT22;11870;53.084;18.206;2023-02-16T11:17:24;12.30;70.30
23395;DHT22;11870;53.084;18.206;2023-02-16T11:19:57;12.00;71.20
23395;DHT22;11870;53.084;18.206;2023-02-16T11:22:35;12.00;74.30
23395;DHT22;11870;53.084;18.206;2023-02-16T11:27:56;11.60;79.50
23395;DHT22;11870;53.084;18.206;2023-02-16T11:30:32;11.40;82.20
23395;DHT22;11870;53.084;18.206;2023-02-16T11:33:00;11.20;86.90
23395;DHT22;11870;53.084;18.206;2023-02-16T11:35:30;11.20;87.10
23395;DHT22;11870;53.084;18.206;2023-02-16T11:37:56;10.90;88.40
23395;DHT22;11870;53.084;18.206;2023-02-16T11:40:29;10.80;91.90
23395;DHT22;11870;53.084;18.206;2023-02-16T11:42:59;10.90;92.90
23395;DHT22;11870;53.084;18.206;2023-02-16T11:47:57;10.90;95.80
23395;DHT22;11870;53.084;18.206;2023-02-16T11:50:31;10.80;94.90
23395;DHT22;11870;53.084;18.206;2023-02-16T11:53:22;10.90;96.10
23395;DHT22;11870;53.084;18.206;2023-02-16T11:55:49;10.90;96.20
23395;DHT22;11870;53.084;18.206;2023-02-16T11:58:22;10.90;98.00
23395;DHT22;11870;53.084;18.206;2023-02-16T12:09:36;10.80;99.90
23395;DHT22;11870;53.084;18.206;2023-02-16T12:12:15;10.80;99.90
23395;DHT22;11870;53.084;18.206;2023-02-16T12:31:46;10.60;99.90
23395;DHT22;11870;53.084;18.206;2023-02-16T12:36:56;10.40;99.90
23395;DHT22;11870;53.084;18.206;2023-02-16T12:42:21;10.40;99.90
23395;DHT22;11870;53.084;18.206;2023-02-16T12:45:19;10.30;99.90
23395;DHT22;11870;53.084;18.206;2023-02-16T12:47:57;10.30;99.90
23395;DHT22;11870;53.084;18.206;2023-02-16T12:50:27;10.20;99.90
23395;DHT22;11870;53.084;18.206;2023-02-16T12:56:00;9.90;99.90
23395;DHT22;11870;53.084;18.206;2023-02-16T12:58:37;9.90;99.90
23395;DHT22;11870;53.084;18.206;2023-02-16T13:03:56;9.80;99.90
23395;DHT22;11870;53.084;18.206;2023-02-16T13:06:37;9.90;99.90
23395;DHT22;11870;53.084;18.206;2023-02-16T13:09:41;9.80;99.90
23395;DHT22;11870;53.084;18.206;2023-02-16T13:14:42;9.70;99.90
23395;DHT22;11870;53.084;18.206;2023-02-16T13:17:15;9.80;99.90
23395;DHT22;11870;53.084;18.206;2023-02-16T13:19:43;9.80;99.90
23395;DHT22;11870;53.084;18.206;2023-02-16T13:22:18;9.70;99.90
23395;DHT22;11870;53.084;18.206;2023-02-16T13:39:05;10.00;99.90
23395;DHT22;11870;53.084;18.206;2023-02-16T13:44:44;10.10;99.90
23395;DHT22;11870;53.084;18.206;2023-02-16T13:47:14;10.10;99.90
23395;DHT22;11870;53.084;18.206;2023-02-16T13:49:42;10.40;99.90
23395;DHT22;11870;53.084;18.206;2023-02-16T13:52:33;10.00;99.90
23395;DHT22;11870;53.084;18.206;2023-02-16T13:55:03;10.00;99.90
23395;DHT22;11870;53.084;18.206;2023-02-16T14:02:56;10.00;99.90
23395;DHT22;11870;53.084;18.206;2023-02-16T14:05:35;10.20;99.90
23395;DHT22;11870;53.084;18.206;2023-02-16T14:08:13;9.90;99.90
23395;DHT22;11870;53.084;18.206;2023-02-16T14:15:50;9.70;99.90
23395;DHT22;11870;53.084;18.206;2023-02-16T14:21:31;10.30;99.90
23395;DHT22;11870;53.084;18.206;2023-02-16T14:24:00;9.70;99.90
23395;DHT22;11870;53.084;18.206;2023-02-16T14:26:31;9.60;99.90
23395;DHT22;11870;53.084;18.206;2023-02-16T14:32:23;9.50;99.90
23395;DHT22;11870;53.084;18.206;2023-02-16T14:37:35;9.30;99.90
23395;DHT22;11870;53.084;18.206;2023-02-16T14:40:14;9.00;99.90
23395;DHT22;11870;53.084;18.206;2023-02-16T14:42:48;9.40;99.90
23395;DHT22;11870;53.084;18.206;2023-02-16T14:47:57;8.60;99.90
23395;DHT22;11870;53.084;18.206;2023-02-16T14:54:00;8.50;99.90
23395;DHT22;11870;53.084;18.206;2023-02-16T14:56:53;8.40;99.90
23395;DHT22;11870;53.084;18.206;2023-02-16T14:59:53;8.40;99.90
23395;DHT22;11870;53.084;18.206;2023-02-16T15:02:37;8.30;99.90
23395;DHT22;11870;53.084;18.206;2023-02-16T15:05:15;8.20;99.90
23395;DHT22;11870;53.084;18.206;2023-02-16T15:07:44;8.00;99.90
23395;DHT22;11870;53.084;18.206;2023-02-16T15:10:12;8.90;99.90
23395;DHT22;11870;53.084;18.206;2023-02-16T15:12:39;7.80;99.90
23395;DHT22;11870;53.084;18.206;2023-02-16T15:15:07;7.70;99.90
23395;DHT22;11870;53.084;18.206;2023-02-16T15:17:46;7.60;99.90
23395;DHT22;11870;53.084;18.206;2023-02-16T15:20:23;7.50;99.90
23395;DHT22;11870;53.084;18.206;2023-02-16T15:22:55;7.40;99.90
23395;DHT22;11870;53.084;18.206;2023-02-16T15:25:26;7.30;99.90
23395;DHT22;11870;53.084;18.206;2023-02-16T15:27:58;7.10;99.90
23395;DHT22;11870;53.084;18.206;2023-02-16T15:30:33;6.90;99.90
23395;DHT22;11870;53.084;18.206;2023-02-16T15:33:05;6.80;99.90
23395;DHT22;11870;53.084;18.206;2023-02-16T15:35:40;6.80;99.90
23395;DHT22;11870;53.084;18.206;2023-02-16T15:38:08;6.50;99.90
23395;DHT22;11870;53.084;18.206;2023-02-16T15:40:43;6.30;99.90
23395;DHT22;11870;53.084;18.206;2023-02-16T15:43:26;6.20;99.90
23395;DHT22;11870;53.084;18.206;2023-02-16T15:45:56;6.10;99.90
23395;DHT22;11870;53.084;18.206;2023-02-16T15:48:29;5.90;99.90
23395;DHT22;11870;53.084;18.206;2023-02-16T15:51:00;5.80;99.90
23395;DHT22;11870;53.084;18.206;2023-02-16T15:56:42;5.50;99.90
23395;DHT22;11870;53.084;18.206;2023-02-16T15:59:32;5.50;99.90
23395;DHT22;11870;53.084;18.206;2023-02-16T16:04:27;5.40;99.90
23395;DHT22;11870;53.084;18.206;2023-02-16T16:06:55;5.20;99.90
23395;DHT22;11870;53.084;18.206;2023-02-16T16:09:30;5.00;99.90
23395;DHT22;11870;53.084;18.206;2023-02-16T16:11:59;4.90;99.90
23395;DHT22;11870;53.084;18.206;2023-02-16T16:14:27;4.70;99.90
23395;DHT22;11870;53.084;18.206;2023-02-16T16:16:53;4.50;99.90
23395;DHT22;11870;53.084;18.206;2023-02-16T16:19:33;4.50;99.90
23395;DHT22;11870;53.084;18.206;2023-02-16T16:22:01;4.30;99.90
23395;DHT22;11870;53.084;18.206;2023-02-16T16:24:35;4.20;99.90
23395;DHT22;11870;53.084;18.206;2023-02-16T16:27:07;4.10;99.90
23395;DHT22;11870;53.084;18.206;2023-02-16T16:29:36;4.00;99.90
23395;DHT22;11870;53.084;18.206;2023-02-16T16:32:04;4.50;99.90
23395;DHT22;11870;53.084;18.206;2023-02-16T16:34:38;4.90;99.90
23395;DHT22;11870;53.084;18.206;2023-02-16T16:37:06;3.70;99.90
23395;DHT22;11870;53.084;18.206;2023-02-16T16:39:42;3.60;99.90
23395;DHT22;11870;53.084;18.206;2023-02-16T16:42:26;3.50;99.90
23395;DHT22;11870;53.084;18.206;2023-02-16T16:45:31;3.30;99.90
23395;DHT22;11870;53.084;18.206;2023-02-16T16:47:59;3.20;99.90
23395;DHT22;11870;53.084;18.206;2023-02-16T16:50:37;3.20;99.90
23395;DHT22;11870;53.084;18.206;2023-02-16T16:55:56;3.10;99.90
23395;DHT22;11870;53.084;18.206;2023-02-16T16:58:22;3.00;99.90
23395;DHT22;11870;53.084;18.206;2023-02-16T17:00:48;2.90;99.90
23395;DHT22;11870;53.084;18.206;2023-02-16T17:03:16;2.90;99.90
23395;DHT22;11870;53.084;18.206;2023-02-16T17:05:43;2.80;99.90
23395;DHT22;11870;53.084;18.206;2023-02-16T17:08:10;2.70;99.90
23395;DHT22;11870;53.084;18.206;2023-02-16T17:10:40;2.70;99.90
23395;DHT22;11870;53.084;18.206;2023-02-16T17:13:06;2.60;99.90
23395;DHT22;11870;53.084;18.206;2023-02-16T17:17:58;2.50;99.90
23395;DHT22;11870;53.084;18.206;2023-02-16T17:20:25;2.60;99.90
23395;DHT22;11870;53.084;18.206;2023-02-16T17:22:51;2.50;99.90
23395;DHT22;11870;53.084;18.206;2023-02-16T17:25:17;3.10;99.90
23395;DHT22;11870;53.084;18.206;2023-02-16T17:27:43;2.50;99.90
23395;DHT22;11870;53.084;18.206;2023-02-16T17:30:10;2.50;99.90
23395;DHT22;11870;53.084;18.206;2023-02-16T17:32:37;2.50;99.90
23395;DHT22;11870;53.084;18.206;2023-02-16T17:35:03;2.50;99.90
23395;DHT22;11870;53.084;18.206;2023-02-16T17:37:31;2.50;99.90
23395;DHT22;11870;53.084;18.206;2023-02-16T17:39:58;2.60;99.90
23395;DHT22;11870;53.084;18.206;2023-02-16T17:42:24;2.60;99.90
23395;DHT22;11870;53.084;18.206;2023-02-16T17:44:50;2.60;99.90
23395;DHT22;11870;53.084;18.206;2023-02-16T17:47:16;2.60;99.90
23395;DHT22;11870;53.084;18.206;2023-02-16T17:49:42;2.70;99.90
23395;DHT22;11870;53.084;18.206;2023-02-16T17:52:10;2.80;99.90
23395;DHT22;11870;53.084;18.206;2023-02-16T17:54:36;2.80;99.90
23395;DHT22;11870;53.084;18.206;2023-02-16T17:57:02;2.70;99.90
23395;DHT22;11870;53.084;18.206;2023-02-16T17:59:28;2.80;99.90
23395;DHT22;11870;53.084;18.206;2023-02-16T18:01:56;2.70;99.90
23395;DHT22;11870;53.084;18.206;2023-02-16T18:04:22;2.70;99.90
23395;DHT22;11870;53.084;18.206;2023-02-16T18:06:48;2.70;99.90
23395;DHT22;11870;53.084;18.206;2023-02-16T18:09:15;2.70;99.90
23395;DHT22;11870;53.084;18.206;2023-02-16T18:11:45;2.70;99.90
23395;DHT22;11870;53.084;18.206;2023-02-16T18:14:12;2.70;99.90